Coal Mine Mesa, Arizona
Current Conditions -  °F | °C
As of 1:54 PM on Thursday 20 Nov 2014 (Local Time) from KGCN Reporting Station
Clear Clear  
Wind Chill: 53°   Ceiling: Unl
Heat Index: 53°   Visibility: 10mi
Dew Point: 24°   Wind: 13mph
Humidity: 32%   Direction: 240°WSW
Pressure: 30.08"   Gusts: 17mph
Location:  35.9808°N, 111.359°W
Report Text: KGCN 202054Z 24011G15KT 10SM CLR 12/M04 A3008 RMK AO2 SLP170 T01171044 56024
Loading
Personal Weather Stations






























Interactive Weather Map New forecast layout! Learn more

10-Day Weather Forecast

Advertisements
Track Severe Weather on mobile